Time;durP1;ratioP1;P1;durP2;ratioP2;P2;SDS_P1;SDS_P2;PMS_P1;PMS_P2;Temp;Humidity;BMP_temperature;BMP_pressure;BME280_temperature;BME280_humidity;BME280_pressure;Samples;Min_cycle;Max_cycle;Signal;HPM_P1;HPM_P2
2022/05/24 00:00:37;;;;;;;10.27;7.03;;;14.80;99.90;;;-146.41;100.00;57768.22;5022284;28;20132;-70
2022/05/24 00:03:05;;;;;;;7.80;6.90;;;14.80;99.90;;;-146.41;100.00;57768.22;5019860;28;20084;-70
2022/05/24 00:05:34;;;;;;;8.70;7.68;;;14.80;99.90;;;-146.41;100.00;57768.22;5018139;28;20053;-70
2022/05/24 00:08:04;;;;;;;9.50;7.28;;;14.80;99.90;;;-146.41;100.00;57768.22;5021205;28;20546;-70
2022/05/24 00:10:32;;;;;;;11.18;7.05;;;14.80;99.90;;;-146.41;100.00;57768.22;5020900;28;20140;-70
2022/05/24 00:12:59;;;;;;;12.05;7.00;;;14.90;99.90;;;-146.41;100.00;57768.22;5018725;28;21453;-70
2022/05/24 00:15:30;;;;;;;11.57;7.35;;;14.80;99.90;;;-146.41;100.00;57768.22;5018651;28;20534;-70
2022/05/24 00:18:04;;;;;;;9.07;6.38;;;14.80;99.90;;;-146.41;100.00;57768.22;5021909;28;20472;-69
2022/05/24 00:20:54;;;;;;;9.45;6.60;;;14.80;99.90;;;-146.41;100.00;57768.22;5020848;28;20490;-69
2022/05/24 00:23:24;;;;;;;8.65;6.43;;;14.90;99.90;;;-146.41;100.00;57768.22;5018815;28;20128;-70
2022/05/24 00:25:59;;;;;;;10.07;7.00;;;15.00;99.90;;;-146.41;100.00;57768.22;5017228;28;20133;-70
2022/05/24 00:28:29;;;;;;;10.23;6.72;;;15.10;99.90;;;-146.41;100.00;57768.22;5022978;28;20125;-70
2022/05/24 00:30:57;;;;;;;7.55;6.30;;;15.10;99.90;;;-146.41;100.00;57768.22;5020344;28;20132;-69
2022/05/24 00:33:28;;;;;;;9.27;7.03;;;15.10;99.90;;;-146.41;100.00;57768.22;5014252;28;20100;-69
2022/05/24 00:35:55;;;;;;;8.95;7.00;;;15.10;99.90;;;-146.41;100.00;57768.22;5019883;28;20132;-70
2022/05/24 00:38:38;;;;;;;11.15;7.28;;;15.10;99.90;;;-146.41;100.00;57768.22;5020506;28;20481;-70
2022/05/24 00:41:32;;;;;;;11.38;7.38;;;15.10;99.90;;;-146.41;100.00;57768.22;5020487;28;20096;-70
2022/05/24 00:44:03;;;;;;;;;;;15.10;99.90;;;-146.41;100.00;57768.22;5018237;28;20130;-70
2022/05/24 00:47:22;;;;;;;13.07;6.85;;;15.10;99.90;;;-146.41;100.00;57768.22;5019175;28;19922;-70
2022/05/24 00:50:04;;;;;;;10.18;7.55;;;15.10;99.90;;;-146.41;100.00;57768.22;4983247;28;20071;-70
2022/05/24 00:52:45;;;;;;;10.00;6.45;;;15.00;99.90;;;-146.41;100.00;57768.22;5015760;28;20558;-69
2022/05/24 00:55:14;;;;;;;12.93;8.43;;;15.00;99.90;;;-146.41;100.00;57768.22;5017918;28;20096;-70
2022/05/24 00:58:12;;;;;;;13.75;8.20;;;15.00;99.90;;;-146.41;100.00;57768.22;5019649;28;20102;-70
2022/05/24 01:00:39;;;;;;;17.80;9.30;;;14.90;99.90;;;-146.41;100.00;57768.22;5020278;28;20049;-70
2022/05/24 01:03:07;;;;;;;13.82;7.20;;;14.90;99.90;;;-146.41;100.00;57768.22;5021045;28;20132;-70
2022/05/24 01:05:35;;;;;;;12.23;8.88;;;14.90;99.90;;;-146.41;100.00;57768.22;5016301;28;20050;-70
2022/05/24 01:08:02;;;;;;;11.48;7.57;;;14.90;99.90;;;-146.41;100.00;57768.22;5020627;28;20049;-70
2022/05/24 01:10:50;;;;;;;16.33;9.10;;;14.80;99.90;;;-146.41;100.00;57768.22;5017356;28;20160;-70
2022/05/24 01:13:25;;;;;;;16.65;10.43;;;14.80;99.90;;;-146.41;100.00;57768.22;5017934;28;20053;-70
2022/05/24 01:15:53;;;;;;;12.88;8.30;;;14.70;99.90;;;-146.41;100.00;57768.22;5022581;28;20085;-70
2022/05/24 01:18:23;;;;;;;8.98;7.93;;;14.80;99.90;;;-146.41;100.00;57768.22;5022523;28;20114;-69
2022/05/24 01:21:03;;;;;;;10.80;8.10;;;14.70;99.90;;;-146.41;100.00;57768.22;5022094;28;20072;-70
2022/05/24 01:24:00;;;;;;;14.70;8.10;;;14.80;99.90;;;-146.41;100.00;57768.22;5022400;28;20061;-70
2022/05/24 01:26:51;;;;;;;13.10;7.72;;;14.80;99.90;;;-146.41;100.00;57768.22;5018676;28;20046;-70
2022/05/24 01:29:20;;;;;;;9.77;7.93;;;14.80;99.90;;;-146.41;100.00;57768.22;5019242;28;20077;-70
2022/05/24 01:37:22;;;;;;;12.93;10.07;;;14.70;99.90;;;-146.41;100.00;57768.22;5019877;28;20158;-69
2022/05/24 01:39:54;;;;;;;12.60;9.48;;;14.70;99.90;;;-146.41;100.00;57768.22;5018041;28;20088;-68
2022/05/24 01:42:23;;;;;;;16.67;10.27;;;14.70;99.90;;;-146.41;100.00;57768.22;5018206;28;20557;-70
2022/05/24 01:45:12;;;;;;;16.40;9.93;;;14.70;99.90;;;-146.41;100.00;57768.22;5018180;28;20125;-68
2022/05/24 01:47:43;;;;;;;14.32;10.15;;;14.70;99.90;;;-146.41;100.00;57768.22;5022914;28;20124;-71
2022/05/24 01:50:21;;;;;;;14.48;10.73;;;14.80;99.90;;;-146.41;100.00;57768.22;5018851;28;20136;-69
2022/05/24 01:52:59;;;;;;;15.77;10.43;;;14.70;99.90;;;-146.41;100.00;57768.22;5005384;28;20145;-69
2022/05/24 01:55:33;;;;;;;12.52;8.85;;;14.80;99.90;;;-146.41;100.00;57768.22;5019819;28;20133;-70
2022/05/24 01:58:06;;;;;;;11.15;8.82;;;14.70;99.90;;;-146.41;100.00;57768.22;5014682;28;20132;-70
2022/05/24 02:00:33;;;;;;;11.35;9.38;;;14.80;99.90;;;-146.41;100.00;57768.22;5019347;28;20050;-70
2022/05/24 02:03:00;;;;;;;13.40;9.88;;;14.80;99.90;;;-146.41;100.00;57768.22;5019568;28;20431;-70
2022/05/24 02:05:31;;;;;;;10.65;8.55;;;14.80;99.90;;;-146.41;100.00;57768.22;5022652;28;20041;-70
2022/05/24 02:07:59;;;;;;;11.75;8.40;;;14.80;99.90;;;-146.41;100.00;57768.22;5021512;28;20053;-70
2022/05/24 02:10:28;;;;;;;12.02;6.72;;;14.80;99.90;;;-146.41;100.00;57768.22;5021302;28;20144;-70
2022/05/24 02:13:00;;;;;;;11.25;7.00;;;14.70;99.90;;;-146.41;100.00;57768.22;5004629;28;20128;-69
2022/05/24 02:15:32;;;;;;;8.55;6.15;;;14.70;99.90;;;-146.41;100.00;57768.22;5021819;28;20140;-70
2022/05/24 02:18:08;;;;;;;7.55;5.43;;;14.70;99.90;;;-146.41;100.00;57768.22;5007158;28;20049;-69
2022/05/24 02:20:45;;;;;;;6.95;5.53;;;14.70;99.90;;;-146.41;100.00;57768.22;5021667;28;20425;-70
2022/05/24 02:23:16;;;;;;;9.55;5.80;;;14.70;99.90;;;-146.41;100.00;57768.22;5023912;28;20207;-70
2022/05/24 02:25:55;;;;;;;8.48;5.35;;;14.70;99.90;;;-146.41;100.00;57768.22;5023278;28;20156;-70
2022/05/24 02:28:27;;;;;;;8.88;4.60;;;14.60;99.90;;;-146.41;100.00;57768.22;5022222;28;20408;-70
2022/05/24 02:30:59;;;;;;;13.73;5.07;;;14.60;99.90;;;-146.41;100.00;57768.22;5023297;28;20131;-69
2022/05/24 02:33:27;;;;;;;10.20;5.13;;;14.60;99.90;;;-146.41;100.00;57768.22;5024765;28;20429;-70
2022/05/24 02:35:54;;;;;;;10.40;4.38;;;14.60;99.90;;;-146.41;100.00;57768.22;5023744;28;20132;-69
2022/05/24 02:38:21;;;;;;;6.65;5.50;;;14.50;99.90;;;-146.41;100.00;57768.22;5025343;28;20050;-69
2022/05/24 02:43:35;;;;;;;7.78;5.90;;;14.50;99.90;;;-146.41;100.00;57768.22;5025580;28;20073;-70
2022/05/24 02:46:03;;;;;;;7.70;4.70;;;14.50;99.90;;;-146.41;100.00;57768.22;5021957;28;20518;-70
2022/05/24 02:48:30;;;;;;;9.13;5.75;;;14.50;99.90;;;-146.41;100.00;57768.22;5025296;28;20459;-69
2022/05/24 02:50:58;;;;;;;10.80;5.35;;;14.50;99.90;;;-146.41;100.00;57768.22;5019264;28;20140;-69
2022/05/24 02:53:26;;;;;;;7.38;4.70;;;14.50;99.90;;;-146.41;100.00;57768.22;5021905;28;20049;-69
2022/05/24 02:55:53;;;;;;;7.47;4.90;;;14.40;99.90;;;-146.41;100.00;57768.22;5020468;28;20057;-71
2022/05/24 02:58:19;;;;;;;7.65;4.63;;;14.40;99.90;;;-146.41;100.00;57768.22;5023912;28;20101;-70
2022/05/24 03:00:46;;;;;;;6.68;4.72;;;14.30;99.90;;;-146.41;100.00;57768.22;5021416;28;20459;-69
2022/05/24 03:03:13;;;;;;;7.25;4.93;;;14.30;99.90;;;-146.41;100.00;57768.22;5022184;28;20502;-68
2022/05/24 03:05:41;;;;;;;7.88;4.35;;;14.40;99.90;;;-146.41;100.00;57768.22;5022640;28;20045;-71
2022/05/24 03:10:53;;;;;;;6.03;4.70;;;14.40;99.90;;;-146.41;100.00;57768.22;5024397;28;20095;-69
2022/05/24 03:16:11;;;;;;;8.60;5.20;;;14.20;99.90;;;-146.41;100.00;57768.22;5021329;28;21244;-70
2022/05/24 03:18:39;;;;;;;6.05;5.10;;;14.10;99.90;;;-146.41;100.00;57768.22;5025151;28;20526;-70
2022/05/24 03:21:07;;;;;;;7.68;5.70;;;14.00;99.90;;;-146.41;100.00;57768.22;5022159;28;20430;-70
2022/05/24 03:23:35;;;;;;;11.50;6.43;;;14.00;99.90;;;-146.41;100.00;57768.22;5023193;28;20120;-70
2022/05/24 03:26:03;;;;;;;8.00;5.55;;;13.90;99.90;;;-146.41;100.00;57768.22;5023922;28;20122;-70
2022/05/24 03:28:30;;;;;;;7.60;4.65;;;13.80;99.90;;;-146.41;100.00;57768.22;5020255;28;20077;-70
2022/05/24 03:30:56;;;;;;;4.80;4.22;;;13.80;99.90;;;-146.41;100.00;57768.22;5021983;28;20152;-70
2022/05/24 03:33:25;;;;;;;4.60;3.63;;;13.70;99.90;;;-146.41;100.00;57768.22;5023810;28;20103;-71
2022/05/24 03:35:52;;;;;;;8.13;3.15;;;13.70;99.90;;;-146.41;100.00;57768.22;5025009;28;20073;-71
2022/05/24 03:38:19;;;;;;;5.25;2.78;;;13.60;99.90;;;-146.41;100.00;57768.22;5022882;28;20160;-70
2022/05/24 03:40:46;;;;;;;5.13;2.70;;;13.50;99.90;;;-146.41;100.00;57768.22;5020791;28;20057;-70
2022/05/24 03:43:16;;;;;;;4.57;2.38;;;13.40;99.90;;;-146.41;100.00;57768.22;5022373;28;20947;-70
2022/05/24 03:45:44;;;;;;;5.25;2.35;;;13.40;99.90;;;-146.41;100.00;57768.22;5021389;28;20460;-69
2022/05/24 03:48:14;;;;;;;4.57;2.45;;;13.30;99.90;;;-146.41;100.00;57768.22;5021488;28;20160;-69
2022/05/24 03:50:41;;;;;;;4.57;2.97;;;13.40;99.90;;;-146.41;100.00;57768.22;5024112;28;20072;-69
2022/05/24 03:53:08;;;;;;;4.60;3.05;;;13.40;99.90;;;-146.41;100.00;57768.22;5024858;28;20133;-69
2022/05/24 03:55:34;;;;;;;8.68;3.42;;;13.40;99.90;;;-146.41;100.00;57768.22;5023929;28;20080;-70
2022/05/24 03:58:02;;;;;;;3.45;2.70;;;13.40;99.90;;;-146.41;100.00;57768.22;5023408;28;20084;-69
2022/05/24 04:00:37;;;;;;;4.32;3.17;;;13.50;99.90;;;-146.41;100.00;57768.22;5021733;28;20061;-69
2022/05/24 04:03:05;;;;;;;6.88;3.40;;;13.60;99.90;;;-146.41;100.00;57768.22;5021349;28;20148;-69
2022/05/24 04:05:33;;;;;;;5.30;2.63;;;13.60;99.90;;;-146.41;100.00;57768.22;5023927;28;20053;-69
2022/05/24 04:08:01;;;;;;;5.47;3.20;;;13.60;99.90;;;-146.41;100.00;57768.22;5022254;28;20441;-70
2022/05/24 04:10:31;;;;;;;5.15;3.05;;;13.60;99.90;;;-146.41;100.00;57768.22;5019147;28;20144;-70
2022/05/24 04:13:00;;;;;;;5.25;3.50;;;13.70;99.90;;;-146.41;100.00;57768.22;5022565;28;20045;-69
2022/05/24 04:15:27;;;;;;;7.22;3.63;;;13.70;99.90;;;-146.41;100.00;57768.22;5021438;28;20133;-69
2022/05/24 04:17:55;;;;;;;5.78;3.20;;;13.70;99.90;;;-146.41;100.00;57768.22;5024208;28;20474;-69
2022/05/24 04:20:25;;;;;;;6.50;3.55;;;13.70;99.90;;;-146.41;100.00;57768.22;5023392;28;20049;-69
2022/05/24 04:22:55;;;;;;;6.20;3.10;;;13.70;99.90;;;-146.41;100.00;57768.22;5024364;28;20586;-69
2022/05/24 04:25:23;;;;;;;5.65;3.03;;;13.70;99.90;;;-146.41;100.00;57768.22;5021411;28;20444;-69
2022/05/24 04:27:51;;;;;;;6.43;2.90;;;13.70;99.90;;;-146.41;100.00;57768.22;5021009;28;20496;-71
2022/05/24 04:30:17;;;;;;;5.55;2.42;;;13.70;99.90;;;-146.41;100.00;57768.22;5022115;28;20164;-70
2022/05/24 04:32:44;;;;;;;5.55;2.40;;;13.80;99.90;;;-146.41;100.00;57768.22;5019626;28;20084;-71
2022/05/24 04:35:12;;;;;;;7.25;2.78;;;13.80;99.90;;;-146.41;100.00;57768.22;5022390;28;20049;-71
2022/05/24 04:37:39;;;;;;;5.13;2.17;;;13.80;99.90;;;-146.41;100.00;57768.22;5024110;28;20132;-70
2022/05/24 04:40:07;;;;;;;8.52;3.67;;;13.80;99.90;;;-146.41;100.00;57768.22;5020539;28;20053;-69
2022/05/24 04:42:34;;;;;;;10.15;3.58;;;13.70;99.90;;;-146.41;100.00;57768.22;5020615;28;20125;-70
2022/05/24 04:45:07;;;;;;;9.15;2.50;;;13.50;99.90;;;-146.41;100.00;57768.22;5023034;28;20081;-70
2022/05/24 04:47:35;;;;;;;;;;;13.40;99.90;;;-146.41;100.00;57768.22;5020955;28;20161;-69
2022/05/24 04:50:08;;;;;;;2.60;0.88;;;13.30;99.90;;;-146.41;100.00;57768.22;5021737;28;19943;-70
2022/05/24 04:52:39;;;;;;;1.73;0.77;;;13.20;99.90;;;-146.41;100.00;57768.22;5022141;28;20124;-70
2022/05/24 04:55:10;;;;;;;1.42;0.70;;;13.10;99.90;;;-146.41;100.00;57768.22;5017961;28;20139;-70
2022/05/24 04:57:37;;;;;;;2.55;0.50;;;13.10;99.90;;;-146.41;100.00;57768.22;5022633;28;20117;-70
2022/05/24 05:00:06;;;;;;;2.05;0.60;;;13.00;99.90;;;-146.41;100.00;57768.22;5023772;28;20080;-71
2022/05/24 05:02:33;;;;;;;10.38;0.73;;;13.00;99.90;;;-146.41;100.00;57768.22;5023585;28;20111;-72
2022/05/24 05:05:01;;;;;;;1.33;0.80;;;13.00;99.90;;;-146.41;100.00;57768.22;5024951;28;20077;-73
2022/05/24 05:07:27;;;;;;;1.15;0.60;;;12.90;99.90;;;-146.41;100.00;57768.22;5025907;28;20092;-72
2022/05/24 05:09:54;;;;;;;1.10;0.68;;;13.00;99.90;;;-146.41;100.00;57768.22;5021882;28;20482;-74
2022/05/24 05:12:21;;;;;;;2.25;0.60;;;13.00;99.90;;;-146.41;100.00;57768.22;5021110;28;20168;-72
2022/05/24 05:14:48;;;;;;;1.50;0.50;;;13.00;99.90;;;-146.41;100.00;57768.22;5022863;28;20053;-71
2022/05/24 05:17:18;;;;;;;2.17;0.50;;;13.00;99.90;;;-146.41;100.00;57768.22;5024880;28;20057;-72
2022/05/24 05:19:46;;;;;;;3.67;0.70;;;13.00;99.90;;;-146.41;100.00;57768.22;5023880;28;20062;-72
2022/05/24 05:22:21;;;;;;;1.15;0.50;;;13.00;99.90;;;-146.41;100.00;57768.22;5017775;28;20481;-72
2022/05/24 05:24:48;;;;;;;2.80;0.70;;;13.00;99.90;;;-146.41;100.00;57768.22;5021265;28;20128;-71
2022/05/24 05:27:16;;;;;;;4.40;0.70;;;13.00;99.90;;;-146.41;100.00;57768.22;5023991;28;20459;-72
2022/05/24 05:32:30;;;;;;;3.22;0.95;;;13.00;99.90;;;-146.41;100.00;57768.22;5021085;28;20124;-73
2022/05/24 05:34:58;;;;;;;2.70;0.90;;;13.00;99.90;;;-146.41;100.00;57768.22;5017834;28;20132;-73
2022/05/24 05:37:30;;;;;;;2.83;0.88;;;13.00;99.90;;;-146.41;100.00;57768.22;5019913;28;20184;-72
2022/05/24 05:40:00;;;;;;;4.97;0.70;;;13.10;99.90;;;-146.41;100.00;57768.22;5020907;28;20073;-70
2022/05/24 05:42:27;;;;;;;3.05;0.93;;;13.20;99.90;;;-146.41;100.00;57768.22;5019588;28;20083;-73
2022/05/24 05:44:54;;;;;;;3.28;0.80;;;13.40;99.90;;;-146.41;100.00;57768.22;5023051;28;20478;-71
2022/05/24 05:47:21;;;;;;;3.08;0.82;;;13.40;99.90;;;-146.41;100.00;57768.22;5017648;28;20149;-71
2022/05/24 05:49:48;;;;;;;1.90;0.60;;;13.40;99.90;;;-146.41;100.00;57768.22;5019502;28;20136;-71
2022/05/24 05:52:15;;;;;;;4.22;0.65;;;13.50;99.90;;;-146.41;100.00;57768.22;5024507;28;20779;-72
2022/05/24 05:54:42;;;;;;;2.35;0.70;;;13.50;99.90;;;-146.41;100.00;57768.22;5029636;28;20207;-71
2022/05/24 05:57:11;;;;;;;2.58;0.73;;;13.50;99.90;;;-146.41;100.00;57768.22;5026279;28;20046;-72
2022/05/24 05:59:39;;;;;;;4.20;0.75;;;13.40;99.90;;;-146.41;100.00;57768.22;5028864;28;20119;-70
2022/05/24 06:02:07;;;;;;;4.03;0.90;;;13.30;99.90;;;-146.41;100.00;57768.22;5030424;28;20084;-72
2022/05/24 06:04:35;;;;;;;3.78;1.00;;;13.30;99.90;;;-146.41;100.00;57768.22;5026538;28;20046;-71
2022/05/24 06:07:03;;;;;;;5.18;0.95;;;13.20;99.90;;;-146.41;100.00;57768.22;5031015;28;20057;-71
2022/05/24 06:09:30;;;;;;;2.05;0.98;;;13.10;99.90;;;-146.41;100.00;57768.22;5024386;28;20081;-72
2022/05/24 06:11:59;;;;;;;2.08;0.88;;;13.00;99.90;;;-146.41;100.00;57768.22;5025023;28;20483;-72
2022/05/24 06:14:26;;;;;;;5.63;1.00;;;12.90;99.90;;;-146.41;100.00;57768.22;5020677;28;20767;-72
2022/05/24 06:17:13;;;;;;;2.03;0.90;;;13.00;99.90;;;-146.41;100.00;57768.22;5021310;28;20045;-71
2022/05/24 06:19:40;;;;;;;2.80;1.00;;;13.10;99.90;;;-146.41;100.00;57768.22;5018081;28;20160;-68
2022/05/24 06:22:07;;;;;;;2.50;0.90;;;13.10;99.90;;;-146.41;100.00;57768.22;5026909;28;20049;-68
2022/05/24 06:24:34;;;;;;;2.15;0.85;;;13.10;99.90;;;-146.41;100.00;57768.22;5025741;28;20080;-68
2022/05/24 06:27:02;;;;;;;2.38;0.90;;;13.10;99.90;;;-146.41;100.00;57768.22;5026254;28;20132;-68
2022/05/24 06:29:32;;;;;;;4.63;0.90;;;13.10;99.90;;;-146.41;100.00;57768.22;5029613;28;20091;-68
2022/05/24 06:32:01;;;;;;;4.65;1.00;;;13.20;99.90;;;-146.41;100.00;57768.22;5025676;28;20049;-67
2022/05/24 06:34:30;;;;;;;4.53;1.10;;;13.30;99.90;;;-146.41;100.00;57768.22;5021342;28;20136;-68
2022/05/24 06:36:57;;;;;;;2.97;0.70;;;13.30;99.90;;;-146.41;100.00;57768.22;5022766;28;20077;-68
2022/05/24 06:39:25;;;;;;;1.92;0.70;;;13.30;99.90;;;-146.41;100.00;57768.22;5016680;28;20049;-69
2022/05/24 06:41:58;;;;;;;3.33;0.95;;;13.30;99.90;;;-146.41;100.00;57768.22;5019471;28;20072;-68
2022/05/24 06:44:25;;;;;;;3.00;0.95;;;13.30;99.90;;;-146.41;100.00;57768.22;5012145;28;20128;-69
2022/05/24 06:46:52;;;;;;;3.13;0.75;;;13.20;99.90;;;-146.41;100.00;57768.22;5019946;28;20132;-68
2022/05/24 06:49:19;;;;;;;2.60;0.70;;;13.10;99.90;;;-146.41;100.00;57768.22;5024046;28;20606;-68
2022/05/24 06:51:46;;;;;;;3.00;0.90;;;13.10;99.90;;;-146.41;100.00;57768.22;5023797;28;20077;-69
2022/05/24 06:54:13;;;;;;;2.78;0.95;;;13.10;99.90;;;-146.41;100.00;57768.22;5023135;28;20123;-68
2022/05/24 06:56:39;;;;;;;4.22;0.70;;;13.10;99.90;;;-146.41;100.00;57768.22;5030015;28;20115;-68
2022/05/24 07:04:40;;;;;;;2.80;0.75;;;13.30;99.90;;;-146.41;100.00;57768.22;5029994;28;20635;-69
2022/05/24 07:07:07;;;;;;;2.60;0.60;;;13.60;99.90;;;-146.41;100.00;57768.22;5023880;28;20081;-68
2022/05/24 07:09:34;;;;;;;1.83;0.60;;;13.80;99.90;;;-146.41;100.00;57768.22;5029073;28;20141;-69
2022/05/24 07:12:02;;;;;;;1.65;0.50;;;14.10;99.90;;;-146.41;100.00;57768.22;5028890;28;20129;-68
2022/05/24 07:14:33;;;;;;;1.52;0.60;;;14.30;99.90;;;-146.41;100.00;57768.22;5025123;28;20095;-69
2022/05/24 07:17:00;;;;;;;2.08;0.60;;;14.50;99.90;;;-146.41;100.00;57768.22;5028835;28;20488;-68
2022/05/24 07:19:28;;;;;;;1.35;0.60;;;14.20;99.90;;;-146.41;100.00;57768.22;5029195;28;20076;-69
2022/05/24 07:21:55;;;;;;;1.77;0.50;;;13.90;99.90;;;-146.41;100.00;57768.22;5024798;28;20140;-68
2022/05/24 07:24:22;;;;;;;1.55;0.40;;;13.70;99.90;;;-146.41;100.00;57768.22;5021953;28;20148;-68
2022/05/24 07:26:49;;;;;;;2.85;0.60;;;13.60;99.90;;;-146.41;100.00;57768.22;5007823;28;20076;-68
2022/05/24 07:29:22;;;;;;;1.45;0.50;;;13.60;99.90;;;-146.41;100.00;57768.22;5027305;28;20462;-69
2022/05/24 07:31:49;;;;;;;1.38;0.40;;;13.70;99.90;;;-146.41;100.00;57768.22;5025321;28;20064;-68
2022/05/24 07:34:16;;;;;;;5.90;0.57;;;13.80;99.90;;;-146.41;100.00;57768.22;5026602;28;20045;-68
2022/05/24 07:36:44;;;;;;;2.67;0.50;;;13.90;99.90;;;-146.41;100.00;57768.22;5027557;28;20073;-68
2022/05/24 07:39:11;;;;;;;2.13;0.50;;;13.90;99.90;;;-146.41;100.00;57768.22;5025921;28;20073;-68
2022/05/24 07:47:31;;;;;;;1.13;0.60;;;14.30;99.90;;;-146.41;100.00;57768.22;5021485;28;20056;-68
2022/05/24 07:49:58;;;;;;;2.72;0.60;;;14.20;99.90;;;-146.41;100.00;57768.22;5026965;28;20523;-69
2022/05/24 07:52:26;;;;;;;7.97;0.60;;;14.10;99.90;;;-146.41;100.00;57768.22;5025434;28;20423;-69
2022/05/24 07:54:53;;;;;;;1.20;0.63;;;14.10;99.90;;;-146.41;100.00;57768.22;5025121;28;20140;-68
2022/05/24 07:57:20;;;;;;;1.27;0.40;;;14.10;99.90;;;-146.41;100.00;57768.22;5024755;28;20116;-69
2022/05/24 07:59:51;;;;;;;1.13;0.40;;;14.10;99.90;;;-146.41;100.00;57768.22;5024869;28;20255;-69
2022/05/24 08:02:20;;;;;;;0.80;0.30;;;14.10;99.90;;;-146.41;100.00;57768.22;5026369;28;20072;-68
2022/05/24 08:04:47;;;;;;;1.45;0.40;;;14.20;99.90;;;-146.41;100.00;57768.22;5026564;28;20224;-68
2022/05/24 08:07:15;;;;;;;1.67;0.40;;;14.30;99.90;;;-146.41;100.00;57768.22;5019203;28;20053;-69
2022/05/24 08:09:42;;;;;;;0.77;0.30;;;14.30;99.90;;;-146.41;100.00;57768.22;5017925;28;20046;-68
2022/05/24 08:12:09;;;;;;;1.45;0.38;;;14.30;99.90;;;-146.41;100.00;57768.22;5024980;28;20133;-69
2022/05/24 08:14:36;;;;;;;3.35;0.50;;;14.20;99.90;;;-146.41;100.00;57768.22;5017330;28;20045;-68
2022/05/24 08:17:04;;;;;;;3.22;0.40;;;14.20;99.90;;;-146.41;100.00;57768.22;5021508;28;20566;-69
2022/05/24 08:19:37;;;;;;;2.95;0.60;;;14.00;99.90;;;-146.41;100.00;57768.22;5026917;28;20052;-68
2022/05/24 08:22:05;;;;;;;2.00;0.43;;;14.00;99.90;;;-146.41;100.00;57768.22;5028136;28;20148;-68
2022/05/24 08:24:33;;;;;;;1.30;0.40;;;13.80;99.90;;;-146.41;100.00;57768.22;5024963;28;20108;-67
2022/05/24 08:27:00;;;;;;;1.73;0.40;;;13.80;99.90;;;-146.41;100.00;57768.22;5025471;28;20103;-67
2022/05/24 08:29:27;;;;;;;3.03;0.43;;;13.80;99.90;;;-146.41;100.00;57768.22;5027290;28;20081;-68
2022/05/24 08:31:54;;;;;;;3.83;0.60;;;13.80;99.90;;;-146.41;100.00;57768.22;5021506;28;20149;-67
2022/05/24 08:34:21;;;;;;;5.95;0.77;;;13.70;99.90;;;-146.41;100.00;57768.22;5022009;28;20056;-67
2022/05/24 08:36:48;;;;;;;1.50;0.50;;;13.60;99.90;;;-146.41;100.00;57768.22;5018984;28;20128;-68
2022/05/24 08:39:15;;;;;;;2.97;0.52;;;13.60;99.90;;;-146.41;100.00;57768.22;5019998;28;20072;-70
2022/05/24 08:42:10;;;;;;;3.20;0.50;;;13.60;99.90;;;-146.41;100.00;57768.22;5020990;28;20467;-68
2022/05/24 08:48:26;;;;;;;1.92;0.50;;;13.60;99.90;;;-146.41;100.00;57768.22;5019657;28;20135;-68
2022/05/24 08:51:04;;;;;;;2.60;0.55;;;13.70;99.90;;;-146.41;100.00;57768.22;5020041;28;20136;-68
2022/05/24 08:53:38;;;;;;;1.83;0.50;;;13.70;99.90;;;-146.41;100.00;57768.22;5019764;28;20211;-68
2022/05/24 08:56:07;;;;;;;4.28;0.73;;;13.80;99.90;;;-146.41;100.00;57768.22;5022702;28;20057;-68
2022/05/24 08:58:41;;;;;;;1.95;0.70;;;13.80;99.90;;;-146.41;100.00;57768.22;5017311;28;20140;-68
2022/05/24 09:01:21;;;;;;;2.95;0.70;;;13.80;99.90;;;-146.41;100.00;57768.22;5034497;28;20124;-68
2022/05/24 09:03:49;;;;;;;2.55;0.60;;;13.70;99.90;;;-146.41;100.00;57768.22;5012614;28;20076;-68
2022/05/24 09:06:46;;;;;;;2.55;0.57;;;14.10;99.90;;;-146.41;100.00;57768.22;5021038;28;20088;-68
2022/05/24 09:09:16;;;;;;;4.97;0.82;;;14.70;99.90;;;-146.41;100.00;57768.22;5017559;28;20535;-69
2022/05/24 09:12:14;;;;;;;2.83;0.50;;;15.30;99.90;;;-146.41;100.00;57768.22;5019771;28;20095;-68
2022/05/24 09:15:01;;;;;;;5.18;0.60;;;15.80;99.90;;;-146.41;100.00;57768.22;5019037;28;20059;-68
2022/05/24 09:18:05;;;;;;;3.60;0.63;;;16.10;99.90;;;-146.41;100.00;57768.22;5019632;28;20148;-68
2022/05/24 09:20:44;;;;;;;4.72;0.50;;;;;;;-146.41;100.00;57768.22;5017974;28;20055;-69
2022/05/24 09:23:28;;;;;;;6.22;0.52;;;16.70;99.90;;;-146.41;100.00;57768.22;5020845;28;20128;-69
2022/05/24 09:25:58;;;;;;;2.65;0.60;;;16.90;99.90;;;-146.41;100.00;57768.22;5021770;28;20041;-68
2022/05/24 09:29:00;;;;;;;1.92;0.40;;;17.20;99.90;;;-146.41;100.00;57768.22;5017199;28;20132;-68
2022/05/24 09:31:45;;;;;;;3.40;0.80;;;17.20;99.90;;;-146.41;100.00;57768.22;5009728;28;20136;-68
2022/05/24 09:34:18;;;;;;;4.57;0.70;;;17.40;99.90;;;-146.41;100.00;57768.22;5023278;28;20056;-72
2022/05/24 09:37:03;;;;;;;6.43;0.40;;;17.60;99.90;;;-146.41;100.00;57768.22;5027251;28;20100;-72
2022/05/24 09:39:36;;;;;;;2.13;0.40;;;17.70;99.90;;;-146.41;100.00;57768.22;5027208;28;20132;-72
2022/05/24 09:42:14;;;;;;;1.85;0.38;;;17.70;99.90;;;-146.41;100.00;57768.22;5026477;28;20160;-72
2022/05/24 09:45:08;;;;;;;5.33;0.50;;;17.80;99.90;;;-146.41;100.00;57768.22;5025382;28;20068;-72
2022/05/24 09:47:41;;;;;;;3.35;0.47;;;18.10;99.90;;;-146.41;100.00;57768.22;5021788;28;20403;-72
2022/05/24 09:50:32;;;;;;;3.05;0.40;;;18.30;99.90;;;-146.41;100.00;57768.22;5029446;28;20045;-73
2022/05/24 09:53:02;;;;;;;3.72;0.47;;;18.60;99.90;;;-146.41;100.00;57768.22;5028389;28;20050;-72
2022/05/24 09:55:38;;;;;;;1.17;0.30;;;18.70;99.90;;;-146.41;100.00;57768.22;5029617;28;20608;-71
2022/05/24 09:59:03;;;;;;;4.50;0.50;;;18.80;99.90;;;-146.41;100.00;57768.22;5029745;28;20061;-72
2022/05/24 10:01:40;;;;;;;3.72;0.40;;;18.80;99.90;;;-146.41;100.00;57768.22;4999156;28;20231;-72
2022/05/24 10:04:27;;;;;;;1.83;0.40;;;18.60;99.90;;;-146.41;100.00;57768.22;5002574;28;20105;-72
2022/05/24 10:07:09;;;;;;;2.88;0.40;;;18.60;99.90;;;-146.41;100.00;57768.22;5023023;28;20053;-72
2022/05/24 10:09:45;;;;;;;2.30;0.40;;;18.40;99.90;;;-146.41;100.00;57768.22;5025356;28;20467;-72
2022/05/24 10:12:51;;;;;;;1.90;0.40;;;18.40;99.90;;;-146.41;100.00;57768.22;5028119;28;20440;-74
2022/05/24 10:15:43;;;;;;;3.30;0.57;;;18.40;99.90;;;-146.41;100.00;57768.22;5020362;28;20041;-71
2022/05/24 10:18:24;;;;;;;1.10;0.30;;;18.70;99.90;;;-146.41;100.00;57768.22;5028477;28;20115;-71
2022/05/24 10:21:27;;;;;;;3.30;0.40;;;18.70;99.90;;;-146.41;100.00;57768.22;5029942;28;20048;-73
2022/05/24 10:24:07;;;;;;;3.10;0.43;;;18.70;99.90;;;-146.41;100.00;57768.22;5028823;28;20055;-71
2022/05/24 10:27:05;;;;;;;1.15;0.20;;;19.00;99.90;;;-146.41;100.00;57768.22;5026056;28;20128;-71
2022/05/24 10:30:07;;;;;;;2.75;0.40;;;19.00;99.90;;;-146.41;100.00;57768.22;5029860;28;20129;-71
2022/05/24 10:39:40;;;;;;;1.40;0.30;;;18.90;99.90;;;-146.41;100.00;57768.22;5033550;28;20065;-72
2022/05/24 10:42:37;;;;;;;1.20;0.40;;;19.00;99.90;;;-146.41;100.00;57768.22;5025780;28;20144;-71
2022/05/24 10:45:49;;;;;;;1.95;0.30;;;19.10;99.90;;;-146.41;100.00;57768.22;5028782;28;20372;-73
2022/05/24 10:48:44;;;;;;;3.35;0.20;;;19.10;99.90;;;-146.41;100.00;57768.22;5026270;28;20602;-72
2022/05/24 10:51:35;;;;;;;2.25;0.20;;;19.50;99.90;;;-146.41;100.00;57768.22;5012315;28;20049;-72
2022/05/24 10:54:26;;;;;;;1.80;0.40;;;19.80;99.90;;;-146.41;100.00;57768.22;5026859;28;20164;-73
2022/05/24 10:57:05;;;;;;;0.55;0.30;;;19.70;99.90;;;-146.41;100.00;57768.22;5027228;28;20041;-73
2022/05/24 11:00:06;;;;;;;2.13;0.30;;;19.80;99.90;;;-146.41;100.00;57768.22;5020820;28;22063;-72
2022/05/24 11:03:04;;;;;;;1.53;0.30;;;20.10;99.90;;;-146.41;100.00;57768.22;5024652;28;20133;-72